Time;durP1;ratioP1;P1;durP2;ratioP2;P2;SDS_P1;SDS_P2;PMS_P1;PMS_P2;Temp;Humidity;BMP_temperature;BMP_pressure;BME280_temperature;BME280_humidity;BME280_pressure;Samples;Min_cycle;Max_cycle;Signal;HPM_P1;HPM_P2
2023/11/30 00:00:57;;;;;;;0.88;0.88;;;;;;;-1.06;59.11;99347.03;5343416;26;20335;-88
2023/11/30 00:03:23;;;;;;;0.30;0.30;;;;;;;-1.16;59.11;99353.78;5342949;26;24116;-89
2023/11/30 00:05:48;;;;;;;0.00;0.00;;;;;;;-1.17;59.10;99348.66;5323480;26;20072;-89
2023/11/30 00:08:13;;;;;;;3.60;1.62;;;;;;;-1.21;59.10;99345.19;5322811;26;30848;-90
2023/11/30 00:10:39;;;;;;;2.37;1.40;;;;;;;-1.20;59.10;99346.91;5332546;26;20409;-89
2023/11/30 00:13:04;;;;;;;3.75;3.42;;;;;;;-1.25;59.09;99346.88;5322777;26;26295;-90
2023/11/30 00:15:30;;;;;;;0.93;0.93;;;;;;;-1.25;59.09;99341.78;5323624;26;20103;-89
2023/11/30 00:17:55;;;;;;;0.65;0.65;;;;;;;-1.19;59.10;99343.50;5305358;26;20356;-90
2023/11/30 00:20:20;;;;;;;0.10;0.10;;;;;;;-1.15;59.11;99335.06;5305524;26;20421;-91
2023/11/30 00:22:47;;;;;;;1.08;0.90;;;;;;;-1.17;59.10;99334.19;5323492;26;20084;-90
2023/11/30 00:25:12;;;;;;;0.90;0.90;;;;;;;-1.00;59.11;99335.16;5305421;26;20142;-90
2023/11/30 00:27:37;;;;;;;0.37;0.37;;;;;;;-1.06;59.11;99342.78;5323398;26;20056;-88
2023/11/30 00:30:03;;;;;;;0.60;0.57;;;;;;;-1.06;59.11;99337.69;5304974;26;20423;-86
2023/11/30 00:32:29;;;;;;;1.00;1.00;;;;;;;-1.08;59.11;99335.97;5341928;26;20401;-89
2023/11/30 00:34:54;;;;;;;0.93;0.93;;;;;;;-1.07;59.11;99337.66;5304510;26;20515;-89
2023/11/30 00:37:19;;;;;;;5.57;2.97;;;;;;;-0.93;59.12;99330.97;5341355;26;22733;-86
2023/11/30 00:39:45;;;;;;;0.77;0.77;;;;;;;-1.02;59.12;99334.31;5341691;26;20130;-88
2023/11/30 00:42:10;;;;;;;0.22;0.22;;;;;;;-0.96;59.11;99330.94;5304898;26;20460;-88
2023/11/30 00:44:35;;;;;;;1.62;1.52;;;;;;;-0.96;59.11;99336.91;5341173;26;26809;-88
2023/11/30 00:47:01;;;;;;;4.53;2.45;;;;;;;-0.93;59.12;99339.50;5322760;26;23082;-88
2023/11/30 00:49:26;;;;;;;0.20;0.20;;;;;;;-0.96;59.11;99336.91;5304887;26;20070;-88
2023/11/30 00:51:52;;;;;;;3.00;2.58;;;;;;;-0.88;59.12;99334.41;5304955;26;20119;-89
2023/11/30 00:54:17;;;;;;;3.58;2.22;;;;;;;-1.05;59.11;99330.87;5304557;26;20120;-89
2023/11/30 00:56:42;;;;;;;1.58;0.98;;;;;;;-0.98;59.11;99330.06;5304027;26;25987;-86
2023/11/30 00:59:08;;;;;;;2.10;2.00;;;;;;;-1.00;59.12;99324.09;5323159;26;20123;-88
2023/11/30 01:01:33;;;;;;;0.93;0.93;;;;;;;-1.06;59.11;99326.59;5285662;26;23106;-88
2023/11/30 01:03:58;;;;;;;4.68;2.35;;;;;;;-1.06;59.11;99324.06;5304739;26;20052;-87
2023/11/30 01:06:24;;;;;;;4.30;3.65;;;;;;;-0.99;59.11;99325.81;5285808;26;31945;-88
2023/11/30 01:08:49;;;;;;;1.60;1.25;;;;;;;-1.08;59.11;99324.03;5286710;26;20405;-89
2023/11/30 01:11:15;;;;;;;2.58;1.60;;;;;;;-1.00;59.12;99324.09;5300334;26;20908;-88
2023/11/30 01:13:40;;;;;;;6.22;2.60;;;;;;;-0.89;59.12;99327.59;5322880;26;20079;-89
2023/11/30 01:16:06;;;;;;;4.55;3.67;;;;;;;-0.94;59.11;99329.28;5322656;26;25951;-88
2023/11/30 01:18:32;;;;;;;1.65;1.55;;;;;;;-0.86;59.12;99321.66;5323303;26;20709;-89
2023/11/30 01:20:57;;;;;;;7.15;6.40;;;;;;;-0.83;59.12;99330.19;5323735;26;20466;-89
2023/11/30 01:23:23;;;;;;;3.90;2.90;;;;;;;-0.90;59.12;99327.59;5323261;26;20100;-88
2023/11/30 01:25:48;;;;;;;2.40;2.17;;;;;;;-0.86;59.12;99326.75;5322904;26;20092;-88
2023/11/30 01:28:14;;;;;;;2.00;1.87;;;;;;;-0.71;59.13;99324.28;5323074;26;24924;-88
2023/11/30 01:30:39;;;;;;;4.72;1.83;;;;;;;-0.63;59.13;99320.09;5323102;26;20094;-88
2023/11/30 01:33:05;;;;;;;0.80;0.70;;;;;;;-0.62;59.13;99309.88;5322574;26;24121;-88
2023/11/30 01:35:31;;;;;;;2.00;1.80;;;;;;;-0.46;59.14;99298.03;5323036;26;20377;-89
2023/11/30 01:37:56;;;;;;;0.93;0.93;;;;;;;-0.67;59.13;99301.34;5323083;26;20074;-87
2023/11/30 01:40:22;;;;;;;2.37;2.20;;;;;;;-0.69;59.13;99300.47;5341481;26;20083;-87
2023/11/30 01:42:48;;;;;;;1.55;1.48;;;;;;;-0.73;59.12;99298.72;5323057;26;20064;-87
2023/11/30 01:45:13;;;;;;;15.43;2.67;;;;;;;-0.65;59.13;99293.69;5322497;26;20080;-87
2023/11/30 01:47:38;;;;;;;0.40;0.40;;;;;;;-0.64;59.14;99288.56;5322502;26;22157;-88
2023/11/30 01:50:04;;;;;;;1.15;1.15;;;;;;;-0.67;59.13;99288.56;5340865;26;30820;-87
2023/11/30 01:52:30;;;;;;;3.55;3.25;;;;;;;-0.63;59.14;99300.50;5341355;26;20360;-88
2023/11/30 01:54:56;;;;;;;0.60;0.60;;;;;;;-0.74;59.12;99291.91;5323205;26;20056;-87
2023/11/30 01:57:22;;;;;;;1.65;1.55;;;;;;;-0.68;59.13;99298.78;5341505;26;20310;-87
2023/11/30 01:59:48;;;;;;;2.05;1.70;;;;;;;-0.54;59.14;99296.28;5322863;26;20072;-87
2023/11/30 02:02:14;;;;;;;1.25;1.17;;;;;;;-0.55;59.14;99303.09;5341181;26;20084;-87
2023/11/30 02:04:40;;;;;;;0.13;0.13;;;;;;;-0.46;59.14;99302.31;5323046;26;20060;-87
2023/11/30 02:07:06;;;;;;;0.50;0.50;;;;;;;-0.41;59.14;99303.19;5322957;26;20072;-87
2023/11/30 02:09:31;;;;;;;0.20;0.20;;;;;;;-0.45;59.14;99299.75;5327271;26;22258;-88
2023/11/30 02:11:57;;;;;;;2.62;2.37;;;;;;;-0.54;59.14;99294.56;5389220;26;20101;-88
2023/11/30 02:14:22;;;;;;;1.45;1.35;;;;;;;-0.41;59.15;99281.03;5368492;26;20328;-89
2023/11/30 02:16:47;;;;;;;0.40;0.40;;;;;;;-0.55;59.14;99285.19;5331478;26;20368;-88
2023/11/30 02:19:13;;;;;;;0.57;0.52;;;;;;;-0.57;59.14;99289.44;5349972;26;20415;-89
2023/11/30 02:21:38;;;;;;;0.43;0.43;;;;;;;-0.52;59.14;99287.75;5388224;26;20056;-88
2023/11/30 02:24:04;;;;;;;0.75;0.75;;;;;;;-0.59;59.13;99287.75;5368491;26;20144;-88
2023/11/30 02:26:29;;;;;;;1.37;1.33;;;;;;;-0.60;59.13;99283.47;5350046;26;20436;-88
2023/11/30 02:28:55;;;;;;;3.62;1.45;;;;;;;-0.71;59.13;99289.41;5368953;26;20083;-89
2023/11/30 02:31:20;;;;;;;0.80;0.80;;;;;;;-0.53;59.14;99282.66;5331220;26;20111;-89
2023/11/30 02:33:45;;;;;;;0.20;0.20;;;;;;;-0.53;59.14;99282.66;5331212;26;20067;-88
2023/11/30 02:36:12;;;;;;;0.95;0.93;;;;;;;-0.50;59.15;99275.84;5349485;26;20067;-89
2023/11/30 02:38:37;;;;;;;0.75;0.75;;;;;;;-0.41;59.15;99267.38;5368696;26;20062;-88
2023/11/30 02:41:03;;;;;;;0.62;0.62;;;;;;;-0.49;59.15;99272.44;5368708;26;20066;-88
2023/11/30 02:43:29;;;;;;;0.68;0.68;;;;;;;-0.39;59.15;99275.91;5368700;26;20066;-88
2023/11/30 02:45:55;;;;;;;0.95;0.95;;;;;;;-0.45;59.14;99268.22;5368852;26;20047;-88
2023/11/30 02:48:20;;;;;;;0.32;0.32;;;;;;;-0.35;59.15;99267.41;5350003;26;20146;-88
2023/11/30 02:50:46;;;;;;;0.20;0.20;;;;;;;-0.49;59.15;99274.12;5330310;26;31022;-88
2023/11/30 02:53:11;;;;;;;0.20;0.20;;;;;;;-0.48;59.14;99275.84;5349895;26;20185;-87
2023/11/30 02:55:36;;;;;;;0.00;0.00;;;;;;;-0.18;59.16;99273.44;5331343;26;20422;-87
2023/11/30 02:58:02;;;;;;;0.62;0.62;;;;;;;-0.26;59.15;99269.13;5368227;26;20439;-87
2023/11/30 03:00:27;;;;;;;0.00;0.00;;;;;;;-0.28;59.15;99266.56;5349441;26;20079;-89
2023/11/30 03:02:53;;;;;;;0.20;0.20;;;;;;;-0.09;59.16;99254.69;5349593;26;22119;-88
2023/11/30 03:05:18;;;;;;;0.43;0.43;;;;;;;0.01;59.18;99238.53;5331650;26;20411;-88
2023/11/30 03:07:43;;;;;;;1.12;1.02;;;;;;;0.08;59.17;99245.38;5368539;26;20358;-88
2023/11/30 03:10:09;;;;;;;3.33;1.58;;;;;;;0.02;59.17;99235.12;5330643;26;26121;-88
2023/11/30 03:12:34;;;;;;;2.05;1.87;;;;;;;0.10;59.18;99227.44;5349567;26;20091;-88
2023/11/30 03:15:00;;;;;;;1.12;1.02;;;;;;;0.12;59.17;99228.31;5349608;26;20133;-89
2023/11/30 03:17:25;;;;;;;0.00;0.00;;;;;;;0.18;59.18;99223.19;5331432;26;20123;-88
2023/11/30 03:19:50;;;;;;;0.00;0.00;;;;;;;0.17;59.18;99231.72;5349646;26;20083;-88
2023/11/30 03:22:16;;;;;;;0.57;0.57;;;;;;;0.12;59.18;99218.91;5348829;26;23676;-88
2023/11/30 03:24:41;;;;;;;0.50;0.43;;;;;;;0.29;59.18;99219.81;5368479;26;20124;-88
2023/11/30 03:27:11;;;;;;;3.30;2.08;;;;;;;0.34;59.19;99222.34;5330913;26;20083;-89
2023/11/30 03:29:37;;;;;;;0.55;0.28;;;;;;;0.36;59.19;99225.78;5351228;26;20091;-89
2023/11/30 03:32:02;;;;;;;0.05;0.05;;;;;;;0.11;59.17;99237.69;5330957;26;20060;-89
2023/11/30 03:34:28;;;;;;;3.95;2.10;;;;;;;0.46;59.20;99230.03;5349587;26;20051;-89
2023/11/30 03:36:53;;;;;;;3.78;1.27;;;;;;;0.54;59.20;99232.59;5368101;26;20107;-88
2023/11/30 03:39:18;;;;;;;1.02;0.60;;;;;;;0.74;59.21;99227.47;5368198;26;20326;-89
2023/11/30 03:41:44;;;;;;;0.00;0.00;;;;;;;0.64;59.20;99231.75;5367898;26;20392;-88
2023/11/30 03:44:09;;;;;;;0.00;0.00;;;;;;;0.72;59.21;99214.69;5349254;26;20090;-88
2023/11/30 03:46:35;;;;;;;0.00;0.00;;;;;;;0.86;59.22;99199.25;5331138;26;20359;-89
2023/11/30 03:49:01;;;;;;;0.00;0.00;;;;;;;0.88;59.22;99193.28;5330936;26;20176;-88
2023/11/30 03:51:26;;;;;;;0.30;0.30;;;;;;;0.93;59.22;99186.44;5349206;26;20171;-88
2023/11/30 03:53:51;;;;;;;1.75;1.05;;;;;;;0.88;59.22;99188.16;5349103;26;21639;-87
2023/11/30 03:56:17;;;;;;;0.75;0.75;;;;;;;0.96;59.22;99174.50;5349251;26;20060;-88
2023/11/30 03:58:42;;;;;;;1.05;1.02;;;;;;;0.85;59.22;99169.38;5368433;26;20447;-88
2023/11/30 04:01:08;;;;;;;0.22;0.22;;;;;;;0.83;59.22;99166.81;5331076;26;20086;-88
2023/11/30 04:03:33;;;;;;;3.75;0.57;;;;;;;0.87;59.22;99155.69;5349130;26;25867;-88
2023/11/30 04:05:58;;;;;;;0.20;0.20;;;;;;;0.88;59.22;99165.09;5348815;26;28614;-87
2023/11/30 04:08:24;;;;;;;0.35;0.35;;;;;;;0.81;59.21;99162.56;5349416;26;20074;-87
2023/11/30 04:10:49;;;;;;;0.80;0.80;;;;;;;1.01;59.22;99155.69;5349444;26;20078;-87
2023/11/30 04:13:15;;;;;;;0.20;0.20;;;;;;;1.09;59.23;99160.78;5349520;26;20059;-87
2023/11/30 04:15:40;;;;;;;0.55;0.55;;;;;;;1.15;59.24;99143.66;5349477;26;20107;-88
2023/11/30 04:18:05;;;;;;;0.30;0.30;;;;;;;1.17;59.24;99141.06;5367476;26;27576;-87
2023/11/30 04:20:31;;;;;;;1.02;1.02;;;;;;;1.25;59.24;99144.47;5349356;26;23214;-87
2023/11/30 04:22:56;;;;;;;2.15;1.40;;;;;;;1.17;59.24;99135.94;5387967;26;21987;-87
2023/11/30 04:25:22;;;;;;;0.65;0.65;;;;;;;1.16;59.24;99134.25;5349334;26;20488;-87
2023/11/30 04:27:47;;;;;;;1.08;1.00;;;;;;;1.06;59.23;99128.31;5368664;26;20451;-87
2023/11/30 04:30:13;;;;;;;0.00;0.00;;;;;;;1.22;59.24;99118.88;5349088;26;22271;-87
2023/11/30 04:32:38;;;;;;;1.52;1.45;;;;;;;1.17;59.24;99110.31;5348908;26;20121;-88
2023/11/30 04:35:05;;;;;;;0.52;0.52;;;;;;;1.12;59.23;99102.66;5349279;26;20105;-88
2023/11/30 04:37:30;;;;;;;0.32;0.32;;;;;;;1.33;59.24;99105.97;5349709;26;20068;-88
2023/11/30 04:39:56;;;;;;;5.78;1.65;;;;;;;1.31;59.24;99113.69;5349297;26;20082;-89
2023/11/30 04:42:21;;;;;;;2.37;0.75;;;;;;;1.38;59.25;99102.53;5367712;26;20358;-88
2023/11/30 04:44:47;;;;;;;0.90;0.80;;;;;;;1.27;59.25;99103.47;5349621;26;20119;-88
2023/11/30 04:47:12;;;;;;;0.00;0.00;;;;;;;1.33;59.24;99100.84;5349888;26;20087;-89
2023/11/30 04:49:38;;;;;;;0.70;0.70;;;;;;;1.51;59.26;99101.59;5330863;26;20071;-89
2023/11/30 04:52:03;;;;;;;0.40;0.40;;;;;;;1.55;59.27;99097.31;5349444;26;20372;-89
2023/11/30 04:54:29;;;;;;;0.32;0.32;;;;;;;1.39;59.25;99111.06;5331348;26;20059;-89
2023/11/30 04:56:54;;;;;;;0.55;0.55;;;;;;;1.49;59.26;99095.63;5349562;26;20157;-87
2023/11/30 04:59:20;;;;;;;0.88;0.80;;;;;;;1.51;59.25;99091.34;5348861;26;20448;-89
2023/11/30 05:01:45;;;;;;;0.75;0.75;;;;;;;1.69;59.26;99084.41;5330752;26;20443;-89
2023/11/30 05:04:10;;;;;;;0.47;0.47;;;;;;;1.66;59.27;99072.44;5330584;26;20131;-88
2023/11/30 05:06:36;;;;;;;0.00;0.00;;;;;;;1.60;59.26;99077.59;5368378;26;20074;-87
2023/11/30 05:09:02;;;;;;;0.03;0.03;;;;;;;1.67;59.27;99065.59;5349083;26;20101;-88
2023/11/30 05:11:28;;;;;;;0.52;0.52;;;;;;;1.64;59.27;99060.47;5341435;26;20064;-89
2023/11/30 05:13:54;;;;;;;0.20;0.20;;;;;;;1.74;59.27;99068.09;5323353;26;20075;-87
2023/11/30 05:16:19;;;;;;;0.15;0.15;;;;;;;1.60;59.26;99074.19;5341832;26;20392;-88
2023/11/30 05:18:44;;;;;;;1.20;1.10;;;;;;;1.79;59.28;99081.75;5343398;26;20104;-88
2023/11/30 05:21:10;;;;;;;0.17;0.17;;;;;;;1.78;59.28;99072.34;5322772;26;22208;-87
2023/11/30 05:23:35;;;;;;;0.40;0.40;;;;;;;1.61;59.26;99070.75;5304561;26;22982;-89
2023/11/30 05:26:01;;;;;;;0.17;0.17;;;;;;;1.77;59.28;99080.06;5306077;26;20088;-92
2023/11/30 05:28:26;;;;;;;1.70;1.60;;;;;;;1.83;59.27;99077.44;5306354;26;20087;-93
2023/11/30 05:30:52;;;;;;;0.52;0.52;;;;;;;1.82;59.27;99081.72;5306673;26;20064;-92
2023/11/30 05:33:18;;;;;;;0.20;0.20;;;;;;;1.80;59.27;99078.31;5306485;26;20456;-91
2023/11/30 05:35:43;;;;;;;3.62;1.33;;;;;;;1.67;59.27;99068.16;5305904;26;20123;-92
2023/11/30 05:38:08;;;;;;;0.57;0.57;;;;;;;1.74;59.27;99062.97;5305672;26;20346;-91
2023/11/30 05:40:35;;;;;;;0.00;0.00;;;;;;;1.80;59.27;99062.06;5305949;26;20437;-91
2023/11/30 05:43:00;;;;;;;4.12;0.88;;;;;;;1.71;59.27;99068.12;5306265;26;20123;-91
2023/11/30 05:45:27;;;;;;;0.00;0.00;;;;;;;1.91;59.27;99055.16;5325693;26;20072;-91
2023/11/30 05:47:52;;;;;;;0.30;0.30;;;;;;;1.78;59.28;99048.41;5292879;26;20123;-91
2023/11/30 05:50:19;;;;;;;1.10;1.10;;;;;;;1.77;59.27;99062.94;5310834;26;20105;-91
2023/11/30 05:52:44;;;;;;;0.20;0.20;;;;;;;1.82;59.27;99065.47;5310762;26;20667;-93
2023/11/30 05:55:11;;;;;;;0.05;0.05;;;;;;;1.94;59.28;99057.69;5329441;26;20052;-90
2023/11/30 05:57:37;;;;;;;0.00;0.00;;;;;;;1.94;59.28;99060.25;5311637;26;20071;-92
2023/11/30 06:00:03;;;;;;;1.42;0.82;;;;;;;1.87;59.28;99050.88;5310419;26;20072;-91
2023/11/30 06:02:29;;;;;;;0.25;0.25;;;;;;;1.96;59.28;99040.56;5310713;26;20067;-91
2023/11/30 06:04:55;;;;;;;5.57;1.65;;;;;;;1.88;59.27;99050.00;5328596;26;20361;-91
2023/11/30 06:07:20;;;;;;;1.33;1.25;;;;;;;1.96;59.28;99055.97;5310554;26;20059;-90
2023/11/30 06:09:46;;;;;;;1.23;0.75;;;;;;;1.94;59.28;99057.69;5306952;26;20341;-92
2023/11/30 06:12:12;;;;;;;1.67;1.58;;;;;;;1.95;59.28;99045.72;5307176;26;20064;-91
2023/11/30 06:14:37;;;;;;;0.15;0.15;;;;;;;1.88;59.27;99039.75;5306939;26;20078;-93
2023/11/30 06:17:03;;;;;;;0.65;0.65;;;;;;;1.94;59.29;99041.44;5307047;26;20314;-92
2023/11/30 06:19:28;;;;;;;0.55;0.55;;;;;;;1.93;59.29;99038.03;5307011;26;20071;-91
2023/11/30 06:21:54;;;;;;;0.10;0.10;;;;;;;2.03;59.28;99038.78;5307148;26;20087;-91
2023/11/30 06:24:19;;;;;;;0.00;0.00;;;;;;;1.99;59.29;99029.41;5306952;26;20095;-90
2023/11/30 06:26:47;;;;;;;0.25;0.25;;;;;;;1.97;59.28;99031.13;5324181;26;24437;-89
2023/11/30 06:29:15;;;;;;;0.10;0.10;;;;;;;1.98;59.29;99036.25;5307064;26;20052;-92
2023/11/30 06:31:41;;;;;;;0.20;0.20;;;;;;;1.96;59.28;99037.12;5325812;26;20661;-94
2023/11/30 06:34:16;;;;;;;1.58;1.48;;;;;;;2.02;59.28;99035.38;5289848;26;20061;-94
2023/11/30 06:36:42;;;;;;;16.15;1.33;;;;;;;2.05;59.28;99031.91;5307155;26;20061;-92
2023/11/30 06:39:08;;;;;;;0.77;0.77;;;;;;;2.07;59.29;99025.91;5305808;26;20055;-91
2023/11/30 06:41:46;;;;;;;;;;;;;;;;;;;;;
2023/11/30 06:44:12;;;;;;;0.00;0.00;;;;;;;2.03;59.28;99039.63;5324831;26;35000;-89
2023/11/30 06:46:41;;;;;;;2.30;2.05;;;;;;;1.88;59.27;99052.59;5286483;26;20068;-90
2023/11/30 06:49:07;;;;;;;0.23;0.23;;;;;;;2.02;59.29;99060.19;5306005;26;20074;-90
2023/11/30 06:51:32;;;;;;;0.22;0.22;;;;;;;1.99;59.29;99057.63;5306597;26;20728;-90
2023/11/30 06:53:58;;;;;;;0.17;0.17;;;;;;;2.17;59.29;99054.06;5305676;26;20064;-90
2023/11/30 06:56:23;;;;;;;2.45;1.60;;;;;;;2.00;59.29;99061.91;5305961;26;20103;-91
2023/11/30 06:58:49;;;;;;;0.00;0.00;;;;;;;2.13;59.29;99060.94;5306579;26;20072;-90
2023/11/30 07:01:16;;;;;;;1.55;1.27;;;;;;;2.36;59.29;99048.72;5306374;26;20130;-94
2023/11/30 07:03:43;;;;;;;1.90;1.75;;;;;;;2.03;59.28;99054.19;5306122;26;20072;-89
2023/11/30 07:06:09;;;;;;;4.05;1.50;;;;;;;2.08;59.29;99053.25;5306323;26;20116;-91
2023/11/30 07:09:12;;;;;;;;;;;;;;;;;;;;;
2023/11/30 07:11:42;;;;;;;3.10;2.55;;;;;;;2.30;59.30;99053.91;5363033;26;35746;-92
2023/11/30 07:14:07;;;;;;;3.35;1.73;;;;;;;2.37;59.31;99068.41;5330487;26;20129;-94
2023/11/30 07:16:41;;;;;;;1.75;1.65;;;;;;;2.40;59.30;99070.94;5348662;26;20059;-96
2023/11/30 07:19:06;;;;;;;0.95;0.95;;;;;;;2.44;59.31;99062.34;5347113;26;20056;-90
2023/11/30 07:21:50;;;;;;;0.37;0.37;;;;;;;2.62;59.32;99061.31;5348236;26;20111;-93
2023/11/30 07:24:16;;;;;;;0.03;0.03;;;;;;;2.50;59.32;99064.00;5348094;26;20115;-90
2023/11/30 07:26:41;;;;;;;1.50;1.40;;;;;;;2.59;59.32;99070.75;5328786;26;20154;-93
2023/11/30 07:29:07;;;;;;;0.30;0.30;;;;;;;2.55;59.31;99064.78;5332555;26;20074;-94
2023/11/30 07:31:32;;;;;;;0.20;0.20;;;;;;;2.57;59.31;99051.91;5330378;26;20456;-96
2023/11/30 07:34:04;;;;;;;0.28;0.28;;;;;;;2.66;59.33;99055.25;5366665;26;20068;-91
2023/11/30 07:36:30;;;;;;;4.10;1.00;;;;;;;2.66;59.33;99051.84;5330632;26;20062;-96
2023/11/30 07:38:57;;;;;;;1.85;1.75;;;;;;;2.42;59.30;99051.25;5330307;26;20111;-95
2023/11/30 07:41:23;;;;;;;1.05;1.05;;;;;;;2.58;59.33;99059.62;5330808;26;20088;-94
2023/11/30 07:43:49;;;;;;;2.20;2.05;;;;;;;2.62;59.32;99063.87;5329797;26;20075;-94
2023/11/30 07:46:14;;;;;;;0.90;0.90;;;;;;;2.60;59.32;99057.03;5329514;26;20075;-89
2023/11/30 07:48:40;;;;;;;0.22;0.22;;;;;;;2.59;59.32;99058.75;5346210;26;20055;-91
2023/11/30 07:51:06;;;;;;;0.30;0.30;;;;;;;2.61;59.32;99053.63;5347180;26;20325;-89
2023/11/30 07:53:31;;;;;;;1.10;0.98;;;;;;;2.53;59.32;99045.12;5328843;26;20080;-89
2023/11/30 07:55:57;;;;;;;0.30;0.30;;;;;;;2.56;59.31;99045.09;5328204;26;20052;-91
2023/11/30 07:58:23;;;;;;;0.40;0.40;;;;;;;2.58;59.32;99041.63;5327347;26;20084;-91
2023/11/30 08:00:48;;;;;;;4.50;2.92;;;;;;;2.52;59.32;99040.84;5327356;26;20397;-88
2023/11/30 08:03:14;;;;;;;1.40;1.30;;;;;;;2.56;59.31;99020.25;5328899;26;20309;-91
2023/11/30 08:05:49;;;;;;;3.67;1.48;;;;;;;2.49;59.31;99022.91;5327436;26;20103;-88
2023/11/30 08:08:15;;;;;;;9.82;2.28;;;;;;;2.58;59.32;99020.22;5329237;26;20146;-90
2023/11/30 08:10:41;;;;;;;3.58;1.40;;;;;;;2.59;59.32;99020.19;5323337;26;20744;-91
2023/11/30 08:13:06;;;;;;;1.45;1.35;;;;;;;2.56;59.31;99024.53;5323635;26;20068;-90
2023/11/30 08:15:32;;;;;;;1.08;0.30;;;;;;;2.53;59.32;99024.56;5343054;26;20056;-90
2023/11/30 08:18:18;;;;;;;0.10;0.10;;;;;;;2.39;59.30;99017.87;5324386;26;20056;-89
2023/11/30 08:21:11;;;;;;;0.10;0.10;;;;;;;2.59;59.32;99015.06;5326424;26;20072;-91
2023/11/30 08:23:47;;;;;;;2.08;1.92;;;;;;;2.28;59.31;99014.56;5325078;26;20064;-92
2023/11/30 08:26:15;;;;;;;0.20;0.20;;;;;;;2.35;59.30;99011.06;5326319;26;20079;-94
2023/11/30 08:28:42;;;;;;;0.20;0.20;;;;;;;2.44;59.31;99007.56;5326731;26;20059;-92
2023/11/30 08:31:08;;;;;;;1.80;1.70;;;;;;;2.34;59.30;98995.66;5324915;26;20083;-90
2023/11/30 08:33:38;;;;;;;0.10;0.10;;;;;;;2.12;59.29;98997.59;5324290;26;20064;-90
2023/11/30 08:36:09;;;;;;;4.47;1.65;;;;;;;2.28;59.29;98990.59;5325045;26;20055;-91
2023/11/30 08:38:37;;;;;;;0.10;0.10;;;;;;;2.23;59.30;98984.69;5324451;26;20107;-91
2023/11/30 08:41:03;;;;;;;3.05;1.90;;;;;;;2.18;59.29;98994.16;5325054;26;20408;-90
2023/11/30 08:43:29;;;;;;;7.47;2.17;;;;;;;2.22;59.30;98993.25;5323650;26;20072;-92
2023/11/30 08:45:55;;;;;;;1.50;1.40;;;;;;;2.43;59.30;98990.44;5326371;26;20066;-92
2023/11/30 08:48:21;;;;;;;1.67;1.58;;;;;;;2.57;59.31;98980.84;5326622;26;20052;-93
2023/11/30 08:50:47;;;;;;;3.55;2.17;;;;;;;2.67;59.32;98979.03;5326283;26;20064;-94
2023/11/30 08:53:12;;;;;;;0.40;0.35;;;;;;;2.52;59.31;98980.06;5326365;26;20043;-93
2023/11/30 08:55:38;;;;;;;1.55;0.88;;;;;;;2.51;59.32;98991.19;5326759;26;20056;-92
2023/11/30 08:58:04;;;;;;;0.60;0.60;;;;;;;2.69;59.33;98995.28;5325962;26;20068;-92
2023/11/30 09:00:29;;;;;;;0.25;0.25;;;;;;;2.69;59.33;99000.41;5344367;26;20746;-92
2023/11/30 09:02:56;;;;;;;3.05;2.75;;;;;;;2.91;59.33;99001.84;5343837;26;20092;-91
2023/11/30 09:05:22;;;;;;;0.52;0.52;;;;;;;2.98;59.34;98987.19;5325108;26;20055;-91
2023/11/30 09:07:50;;;;;;;2.62;1.85;;;;;;;2.87;59.33;98989.91;5325042;26;20083;-91
2023/11/30 09:10:21;;;;;;;4.37;2.37;;;;;;;2.77;59.33;98985.72;5332588;26;20091;-94
2023/11/30 09:12:47;;;;;;;1.83;1.70;;;;;;;2.78;59.32;98985.72;5336210;26;20078;-94
2023/11/30 09:15:12;;;;;;;4.95;1.70;;;;;;;3.06;59.34;98986.19;5333630;26;20059;-94
2023/11/30 09:17:39;;;;;;;1.90;1.00;;;;;;;3.07;59.34;98977.59;5333370;26;20067;-93
2023/11/30 09:20:08;;;;;;;2.60;2.30;;;;;;;3.18;59.35;98974.88;5333925;26;20132;-95
2023/11/30 09:22:34;;;;;;;1.00;1.00;;;;;;;3.20;59.35;98980.84;5335074;26;20056;-94
2023/11/30 09:25:00;;;;;;;0.55;0.55;;;;;;;3.31;59.36;98984.12;5333904;26;20051;-95
2023/11/30 09:27:25;;;;;;;1.85;1.60;;;;;;;3.29;59.36;98965.28;5353486;26;20411;-94
2023/11/30 09:29:51;;;;;;;0.62;0.62;;;;;;;3.43;59.36;98967.66;5335849;26;20074;-94
2023/11/30 09:32:16;;;;;;;0.60;0.60;;;;;;;3.44;59.36;98969.34;5357697;26;20098;-94
2023/11/30 09:34:42;;;;;;;1.15;1.05;;;;;;;3.44;59.36;98968.50;5336429;26;20070;-96
2023/11/30 09:37:08;;;;;;;1.20;1.20;;;;;;;3.43;59.36;98964.22;5335371;26;20051;-94
2023/11/30 09:39:33;;;;;;;0.45;0.45;;;;;;;3.46;59.37;98957.31;5337574;26;20078;-94
2023/11/30 09:42:00;;;;;;;0.20;0.20;;;;;;;3.60;59.38;98954.53;5337166;26;20060;-94
2023/11/30 09:44:28;;;;;;;6.00;2.28;;;;;;;3.66;59.38;98947.53;5357031;26;20047;-93
2023/11/30 09:46:54;;;;;;;1.87;1.75;;;;;;;3.49;59.37;98954.69;5336032;26;20020;-95
2023/11/30 09:49:19;;;;;;;1.10;1.10;;;;;;;3.65;59.38;98955.28;5335855;26;20105;-96
2023/11/30 09:51:45;;;;;;;1.48;0.85;;;;;;;3.51;59.37;98952.09;5336337;26;20463;-95
2023/11/30 09:54:30;;;;;;;0.80;0.75;;;;;;;3.44;59.36;98932.47;5336157;26;20059;-96
2023/11/30 09:57:00;;;;;;;0.40;0.40;;;;;;;3.41;59.37;98929.97;5354208;26;20040;-96
2023/11/30 09:59:33;;;;;;;0.40;0.40;;;;;;;3.36;59.36;98937.75;5371209;26;20075;-96
2023/11/30 10:01:59;;;;;;;0.80;0.80;;;;;;;3.51;59.37;98919.47;5335943;26;20064;-95
2023/11/30 10:04:25;;;;;;;4.03;2.15;;;;;;;3.36;59.36;98912.88;5333928;26;20075;-94
2023/11/30 10:06:53;;;;;;;0.30;0.30;;;;;;;3.48;59.37;98916.13;5334345;26;20069;-95
2023/11/30 10:09:22;;;;;;;1.87;1.08;;;;;;;3.62;59.38;98911.59;5352274;26;20082;-95
2023/11/30 10:11:48;;;;;;;0.85;0.85;;;;;;;3.50;59.37;98904.91;5325763;26;20064;-94
2023/11/30 10:14:14;;;;;;;1.75;1.20;;;;;;;3.57;59.37;98911.69;5326133;26;20139;-93
2023/11/30 10:16:48;;;;;;;0.77;0.77;;;;;;;3.47;59.38;98909.28;5325399;26;20401;-92
2023/11/30 10:19:16;;;;;;;0.90;0.90;;;;;;;3.63;59.38;98901.28;5325241;26;20068;-94
2023/11/30 10:21:41;;;;;;;6.60;3.65;;;;;;;3.67;59.38;98896.91;5323178;26;20375;-89
2023/11/30 10:24:08;;;;;;;1.58;1.48;;;;;;;3.76;59.39;98886.44;5322978;26;20079;-88
2023/11/30 10:26:34;;;;;;;0.32;0.32;;;;;;;3.66;59.38;98890.91;5341804;26;20059;-89
2023/11/30 10:29:02;;;;;;;20.77;3.35;;;;;;;3.66;59.38;98888.34;5323452;26;20092;-90
2023/11/30 10:31:57;;;;;;;;;;;;;;;;;;;;;
2023/11/30 10:34:28;;;;;;;0.25;0.25;;;;;;;3.68;59.39;98871.16;5343163;26;35785;-92
2023/11/30 10:36:55;;;;;;;0.68;0.68;;;;;;;3.68;59.37;98865.16;5325367;26;20416;-91
2023/11/30 10:39:22;;;;;;;1.00;1.00;;;;;;;3.66;59.38;98847.16;5326388;26;20068;-91
2023/11/30 10:41:52;;;;;;;2.08;1.27;;;;;;;3.57;59.37;98842.22;5325443;26;20064;-93
2023/11/30 10:44:27;;;;;;;;;;;;;;;3.53;59.38;98848.25;5326055;26;20039;-92
2023/11/30 10:46:57;;;;;;;3.05;2.85;;;;;;;3.53;59.38;98847.41;5326177;26;19987;-93
2023/11/30 10:49:23;;;;;;;7.78;4.90;;;;;;;3.60;59.37;98841.31;5326239;26;20114;-93
2023/11/30 10:51:53;;;;;;;1.23;1.12;;;;;;;3.51;59.37;98829.44;5326328;26;20060;-93
2023/11/30 10:54:31;;;;;;;3.50;2.70;;;;;;;3.65;59.38;98826.63;5326260;26;20056;-93
2023/11/30 10:57:01;;;;;;;2.47;2.28;;;;;;;3.73;59.38;98816.16;5362941;26;20071;-90
2023/11/30 10:59:30;;;;;;;0.85;0.85;;;;;;;3.68;59.38;98814.53;5344154;26;20060;-93
2023/11/30 11:01:56;;;;;;;3.33;1.17;;;;;;;3.72;59.39;98817.03;5325102;26;20452;-93
2023/11/30 11:04:25;;;;;;;6.55;5.12;;;;;;;3.68;59.37;98811.13;5326195;26;20082;-93
2023/11/30 11:07:08;;;;;;;0.65;0.65;;;;;;;3.73;59.38;98804.16;5326325;26;20048;-94
2023/11/30 11:09:43;;;;;;;0.00;0.00;;;;;;;3.78;59.39;98804.03;5326551;26;20056;-94
2023/11/30 11:12:26;;;;;;;1.92;1.75;;;;;;;3.68;59.38;98793.94;5338503;26;20059;-94
2023/11/30 11:15:12;;;;;;;1.40;1.30;;;;;;;3.70;59.39;98799.91;5330615;26;20087;-95
2023/11/30 11:17:49;;;;;;;0.35;0.35;;;;;;;3.61;59.38;98792.38;5348769;26;20079;-95
2023/11/30 11:20:20;;;;;;;2.05;1.42;;;;;;;3.85;59.39;98792.78;5331690;26;20057;-94
2023/11/30 11:22:50;;;;;;;0.47;0.47;;;;;;;3.74;59.39;98781.81;5349118;26;20078;-90
2023/11/30 11:25:57;;;;;;;1.62;1.52;;;;;;;3.94;59.40;98790.84;5329174;26;20043;-92
2023/11/30 11:29:14;;;;;;;;;;;;;;;;;;;;;
2023/11/30 11:38:50;;;;;;;;;;;;;;;;;;;;;
2023/11/30 11:41:26;;;;;;;1.40;1.30;;;;;;;3.82;59.38;98782.53;5274411;27;35781;-96
2023/11/30 11:43:52;;;;;;;0.95;0.95;;;;;;;3.80;59.38;98772.28;5279363;27;20022;-94
2023/11/30 11:46:17;;;;;;;1.23;1.15;;;;;;;3.74;59.38;98759.50;5340920;26;20073;-95
2023/11/30 11:48:43;;;;;;;0.75;0.75;;;;;;;3.77;59.39;98764.59;5366820;26;20071;-92
2023/11/30 11:51:09;;;;;;;5.90;3.62;;;;;;;3.67;59.38;98763.09;5330516;26;20082;-92
2023/11/30 11:53:38;;;;;;;5.12;2.10;;;;;;;3.74;59.38;98754.38;5330480;26;20105;-91